createdAt,value
2017-11-26T00:01:00.406Z,8.00
2017-11-26T00:03:27.841Z,7.20
2017-11-26T00:05:55.664Z,7.15
2017-11-26T00:08:23.416Z,8.45
2017-11-26T00:10:50.844Z,8.60
2017-11-26T00:13:18.281Z,7.50
2017-11-26T00:15:46.219Z,7.30
2017-11-26T00:18:13.650Z,8.77
2017-11-26T00:20:41.085Z,7.35
2017-11-26T00:23:08.530Z,7.35
2017-11-26T00:25:35.956Z,7.65
2017-11-26T00:28:03.781Z,7.87
2017-11-26T00:30:31.537Z,7.07
2017-11-26T00:32:58.990Z,7.22
2017-11-26T00:35:26.408Z,8.18
2017-11-26T00:37:54.331Z,7.82
2017-11-26T00:40:21.767Z,7.57
2017-11-26T00:42:49.197Z,8.93
2017-11-26T00:45:16.662Z,7.82
2017-11-26T00:47:44.082Z,7.03
2017-11-26T00:50:11.914Z,7.25
2017-11-26T00:52:39.457Z,7.75
2017-11-26T00:55:06.878Z,8.35
2017-11-26T00:57:34.692Z,7.82
2017-11-26T01:00:02.119Z,7.28
2017-11-26T01:02:29.901Z,8.00
2017-11-26T01:04:57.329Z,8.38
2017-11-26T01:07:24.749Z,6.90
2017-11-26T01:09:52.596Z,9.60
2017-11-26T01:12:20.026Z,8.77
2017-11-26T01:14:47.462Z,8.60
2017-11-26T01:17:14.897Z,9.77
2017-11-26T01:19:42.321Z,7.05
2017-11-26T01:22:09.777Z,8.45
2017-11-26T01:24:37.226Z,10.55
2017-11-26T01:27:04.631Z,9.63
2017-11-26T01:29:32.086Z,9.10
2017-11-26T01:31:59.511Z,10.52
2017-11-26T01:34:27.357Z,10.27
2017-11-26T01:36:55.086Z,10.60
2017-11-26T01:39:22.509Z,10.20
2017-11-26T01:41:49.940Z,10.50
2017-11-26T01:44:17.790Z,10.43
2017-11-26T01:46:45.224Z,10.60
2017-11-26T01:49:12.669Z,10.57
2017-11-26T01:51:40.431Z,11.75
2017-11-26T01:54:07.859Z,10.02
2017-11-26T01:56:35.292Z,10.63
2017-11-26T01:59:03.137Z,10.45
2017-11-26T02:01:30.576Z,11.32
2017-11-26T02:03:58.842Z,11.32
2017-11-26T02:06:27.402Z,11.65
2017-11-26T02:08:54.847Z,12.95
2017-11-26T02:11:22.274Z,11.57
2017-11-26T02:13:50.410Z,12.30
2017-11-26T02:16:17.845Z,12.90
2017-11-26T02:18:45.273Z,12.63
2017-11-26T02:21:12.722Z,11.52
2017-11-26T02:23:40.154Z,11.12
2017-11-26T02:26:07.981Z,12.82
2017-11-26T02:28:35.670Z,12.40
2017-11-26T02:31:03.129Z,12.13
2017-11-26T03:41:13.033Z,11.20
2017-11-26T03:43:40.465Z,12.73
2017-11-26T03:46:07.894Z,11.90
2017-11-26T03:48:35.930Z,13.50
2017-11-26T03:51:03.364Z,13.13
2017-11-26T03:53:30.795Z,12.52
2017-11-26T03:55:58.244Z,11.82
2017-11-26T03:58:25.665Z,12.70
2017-11-26T04:00:53.102Z,10.73
2017-11-26T04:03:20.966Z,13.38
2017-11-26T04:05:48.397Z,11.43
2017-11-26T04:08:15.834Z,12.30
2017-11-26T04:10:43.833Z,10.73
2017-11-26T04:13:11.262Z,11.45
2017-11-26T04:15:38.689Z,10.80
2017-11-26T04:18:06.518Z,10.82
2017-11-26T04:20:33.960Z,10.77
2017-11-26T04:23:01.507Z,11.23
2017-11-26T04:25:28.942Z,11.60
2017-11-26T04:27:56.377Z,10.38
2017-11-26T04:30:24.310Z,9.82
2017-11-26T04:32:51.742Z,11.80
2017-11-26T04:35:19.175Z,11.88
2017-11-26T04:37:46.626Z,12.20
2017-11-26T04:40:14.055Z,11.25
2017-11-26T04:42:41.879Z,13.25
2017-11-26T04:45:09.729Z,13.40
2017-11-26T04:47:37.162Z,10.98
2017-11-26T04:50:04.589Z,11.63
2017-11-26T04:52:33.248Z,11.68
2017-11-26T04:55:00.682Z,8.50
2017-11-26T04:57:28.106Z,9.48
2017-11-26T04:59:55.555Z,10.90
2017-11-26T05:02:22.988Z,11.18
2017-11-26T05:04:50.810Z,11.65
2017-11-26T05:07:18.470Z,10.30
2017-11-26T05:09:45.898Z,10.90
2017-11-26T05:12:13.329Z,10.75
2017-11-26T05:14:41.254Z,11.85
2017-11-26T05:17:08.693Z,10.23
2017-11-26T05:19:36.115Z,9.07
2017-11-26T05:22:03.549Z,12.15
2017-11-26T05:24:31.383Z,11.25
2017-11-26T05:26:58.834Z,10.80
2017-11-26T05:29:26.275Z,10.82
2017-11-26T05:31:53.748Z,10.57
2017-11-26T05:34:21.266Z,11.63
2017-11-26T05:36:48.721Z,10.23
2017-11-26T05:39:16.160Z,11.38
2017-11-26T05:41:43.990Z,9.98
2017-11-26T05:44:11.433Z,9.20
2017-11-26T05:46:38.865Z,7.78
2017-11-26T05:49:06.397Z,10.20
2017-11-26T05:51:33.831Z,9.57
2017-11-26T05:54:01.658Z,10.93
2017-11-26T05:56:29.110Z,10.05
2017-11-26T05:58:56.550Z,12.52
2017-11-26T06:01:23.987Z,12.00
2017-11-26T06:03:51.440Z,12.15
2017-11-26T06:06:18.873Z,10.20
2017-11-26T06:08:46.702Z,10.95
2017-11-26T06:11:14.162Z,12.32
2017-11-26T06:13:41.594Z,10.93
2017-11-26T06:16:09.039Z,11.73
2017-11-26T06:18:36.489Z,11.02
2017-11-26T06:21:03.922Z,10.45
2017-11-26T06:23:31.354Z,10.68
2017-11-26T06:25:59.194Z,11.40
2017-11-26T06:28:26.635Z,11.80
2017-11-26T06:30:54.077Z,12.30
2017-11-26T06:33:21.756Z,11.23
2017-11-26T06:35:49.194Z,10.90
2017-11-26T06:38:16.629Z,12.48
2017-11-26T06:40:44.083Z,9.52
2017-11-26T06:43:11.514Z,10.07
2017-11-26T06:45:39.338Z,14.02
2017-11-26T06:48:07.039Z,10.90
2017-11-26T06:50:34.870Z,11.35
2017-11-26T06:53:02.299Z,13.70
2017-11-26T06:55:29.760Z,13.10
2017-11-26T06:57:57.198Z,14.50
2017-11-26T07:00:24.626Z,12.40
2017-11-26T07:02:52.848Z,13.02
2017-11-26T07:05:20.278Z,12.48
2017-11-26T07:07:47.715Z,11.52
2017-11-26T07:10:15.575Z,13.52
2017-11-26T07:12:43.414Z,15.07
2017-11-26T07:15:10.844Z,14.25
2017-11-26T07:17:38.602Z,13.30
2017-11-26T07:20:06.033Z,14.50
2017-11-26T07:22:33.466Z,13.65
2017-11-26T07:25:01.327Z,11.55
2017-11-26T07:27:29.138Z,14.07
2017-11-26T07:29:56.581Z,13.70
2017-11-26T07:32:24.041Z,14.35
2017-11-26T07:37:25.757Z,17.43
2017-11-26T07:39:53.583Z,16.02
2017-11-26T07:42:21.017Z,14.48
2017-11-26T07:44:48.471Z,17.00
2017-11-26T07:47:15.923Z,17.33
2017-11-26T07:49:43.350Z,18.40
2017-11-26T07:52:11.274Z,18.97
2017-11-26T07:54:38.716Z,17.00
2017-11-26T07:57:06.151Z,15.70
2017-11-26T07:59:33.595Z,17.77
2017-11-26T08:02:01.035Z,19.25
2017-11-26T08:04:29.122Z,17.13
2017-11-26T08:06:56.567Z,17.42
2017-11-26T08:09:24.394Z,19.20
2017-11-26T08:11:52.141Z,20.33
2017-11-26T08:14:19.573Z,19.00
2017-11-26T08:16:46.997Z,21.45
2017-11-26T08:19:14.858Z,18.77
2017-11-26T08:21:42.684Z,21.20
2017-11-26T08:24:10.125Z,23.50
2017-11-26T08:26:37.715Z,16.83
2017-11-26T08:29:05.143Z,21.50
2017-11-26T08:31:32.602Z,16.30
2017-11-26T08:34:00.423Z,20.92
2017-11-26T08:36:28.233Z,18.95
2017-11-26T08:38:55.678Z,19.43
2017-11-26T08:41:24.058Z,18.48
2017-11-26T08:43:51.502Z,18.65
2017-11-26T08:46:18.949Z,17.62
2017-11-26T08:48:46.378Z,19.43
2017-11-26T08:51:14.209Z,15.52
2017-11-26T08:53:41.671Z,17.33
2017-11-26T08:56:09.103Z,16.52
2017-11-26T08:58:36.544Z,15.57
2017-11-26T09:01:04.209Z,17.73
2017-11-26T09:03:31.653Z,17.58
2017-11-26T09:05:59.074Z,13.33
2017-11-26T09:08:29.258Z,17.30
2017-11-26T09:10:56.690Z,14.30
2017-11-26T09:13:24.124Z,17.37
2017-11-26T09:15:51.915Z,14.80
2017-11-26T09:18:19.671Z,15.47
2017-11-26T09:20:47.090Z,14.13
2017-11-26T09:23:15.094Z,16.40
2017-11-26T09:25:42.527Z,15.23
2017-11-26T09:28:09.955Z,14.80
2017-11-26T09:30:38.085Z,15.90
2017-11-26T09:33:05.516Z,14.00
2017-11-26T09:35:32.970Z,14.40
2017-11-26T09:38:00.431Z,13.90
2017-11-26T09:40:27.865Z,13.48
2017-11-26T09:42:55.310Z,14.63
2017-11-26T09:45:23.189Z,15.10
2017-11-26T09:47:50.626Z,14.32
2017-11-26T09:50:18.856Z,13.90
2017-11-26T09:52:46.286Z,14.00
2017-11-26T09:55:13.737Z,15.70
2017-11-26T09:57:41.415Z,13.47
2017-11-26T10:00:08.844Z,13.57
2017-11-26T10:02:36.275Z,11.30
2017-11-26T10:05:04.150Z,12.83
2017-11-26T10:07:31.990Z,11.77
2017-11-26T10:09:59.422Z,12.60
2017-11-26T10:12:27.790Z,12.20
2017-11-26T10:14:55.228Z,10.47
2017-11-26T10:17:22.695Z,11.53
2017-11-26T10:19:50.349Z,10.90
2017-11-26T10:22:17.788Z,10.63
2017-11-26T10:24:45.219Z,10.07
2017-11-26T10:27:13.070Z,9.23
2017-11-26T10:29:40.903Z,10.73
2017-11-26T10:32:08.332Z,12.50
2017-11-26T10:34:36.572Z,9.47
2017-11-26T10:37:04.404Z,10.60
2017-11-26T10:39:31.902Z,14.27
2017-11-26T10:41:59.357Z,12.90
2017-11-26T10:44:26.823Z,11.03
2017-11-26T10:46:54.252Z,12.30
2017-11-26T10:49:22.074Z,12.40
2017-11-26T10:51:49.616Z,12.67
2017-11-26T10:54:17.041Z,11.13
2017-11-26T10:56:44.532Z,13.27
2017-11-26T10:59:11.996Z,12.93
2017-11-26T11:01:39.442Z,15.70
2017-11-26T11:04:07.160Z,12.60
2017-11-26T11:06:34.662Z,15.13
2017-11-26T11:09:02.100Z,12.83
2017-11-26T11:11:29.879Z,11.00
2017-11-26T11:13:57.313Z,11.77
2017-11-26T11:16:24.734Z,11.30
2017-11-26T11:18:52.575Z,12.10
2017-11-26T11:21:20.023Z,9.43
2017-11-26T11:23:47.465Z,10.60
2017-11-26T11:26:14.904Z,11.60
2017-11-26T11:28:42.338Z,9.60
2017-11-26T11:31:09.798Z,10.63
2017-11-26T11:33:53.909Z,8.40
2017-11-26T11:36:21.353Z,9.77
2017-11-26T11:38:48.790Z,9.00
2017-11-26T11:41:16.215Z,8.10
2017-11-26T11:43:43.678Z,9.37
2017-11-26T11:46:11.102Z,8.90
2017-11-26T11:48:38.545Z,6.77
2017-11-26T11:51:05.982Z,8.37
2017-11-26T11:53:33.418Z,8.93
2017-11-26T11:56:00.847Z,7.50
2017-11-26T11:58:28.305Z,6.73
2017-11-26T12:00:55.731Z,7.27
2017-11-26T12:03:23.554Z,8.03
2017-11-26T12:05:51.095Z,7.03
2017-11-26T12:08:18.518Z,6.60
2017-11-26T12:10:45.942Z,6.13
2017-11-26T12:13:13.789Z,6.37
2017-11-26T12:15:41.221Z,7.50
2017-11-26T12:18:08.663Z,5.73
2017-11-26T12:20:36.204Z,6.37
2017-11-26T12:23:03.627Z,5.60
2017-11-26T12:25:34.649Z,5.10
2017-11-26T12:28:02.098Z,5.57
2017-11-26T12:30:29.526Z,6.00
2017-11-26T12:32:56.943Z,6.80
2017-11-26T12:35:24.782Z,5.83
2017-11-26T12:37:52.194Z,5.27
2017-11-26T12:40:19.624Z,5.47
2017-11-26T12:42:47.060Z,6.20
2017-11-26T12:45:14.895Z,5.97
2017-11-26T12:47:42.323Z,7.53
2017-11-26T12:50:09.777Z,5.93
2017-11-26T12:52:37.622Z,5.03
2017-11-26T12:55:05.487Z,5.17
2017-11-26T12:57:32.928Z,5.43
2017-11-26T13:00:00.350Z,5.20
2017-11-26T13:02:27.779Z,5.77
2017-11-26T13:04:55.215Z,6.37
2017-11-26T13:07:22.658Z,5.27
2017-11-26T13:09:50.087Z,6.07
2017-11-26T13:12:17.915Z,6.00
2017-11-26T13:14:45.378Z,5.37
2017-11-26T13:17:12.802Z,5.07
2017-11-26T13:19:40.229Z,5.20
2017-11-26T13:22:08.083Z,5.60
2017-11-26T13:24:35.513Z,5.37
2017-11-26T13:27:02.946Z,6.13
2017-11-26T13:29:30.435Z,5.60
2017-11-26T13:31:57.853Z,5.40
2017-11-26T13:34:25.284Z,5.47
2017-11-26T13:36:52.875Z,5.07
2017-11-26T13:39:20.303Z,3.70
2017-11-26T13:41:47.746Z,4.60
2017-11-26T13:44:16.266Z,4.23
2017-11-26T13:46:43.682Z,4.93
2017-11-26T13:49:11.107Z,5.13
2017-11-26T13:51:38.941Z,4.00
2017-11-26T13:54:06.378Z,4.90
2017-11-26T13:56:33.812Z,5.00
2017-11-26T13:59:01.250Z,3.43
2017-11-26T14:01:29.068Z,5.43
2017-11-26T14:03:56.497Z,3.37
2017-11-26T14:06:24.905Z,4.97
2017-11-26T14:08:52.483Z,4.50
2017-11-26T14:11:19.906Z,4.47
2017-11-26T14:13:47.375Z,4.07
2017-11-26T14:16:14.823Z,4.27
2017-11-26T14:18:42.310Z,4.40
2017-11-26T14:21:09.778Z,4.60
2017-11-26T14:23:37.635Z,3.50
2017-11-26T14:26:05.195Z,3.40
2017-11-26T14:28:33.014Z,4.07
2017-11-26T14:31:00.453Z,4.67
2017-11-26T14:33:27.897Z,3.80
2017-11-26T14:35:55.592Z,3.90
2017-11-26T14:38:23.102Z,4.40
2017-11-26T14:40:50.922Z,4.50
2017-11-26T14:43:18.483Z,3.90
2017-11-26T14:45:45.906Z,4.33
2017-11-26T14:48:14.666Z,3.90
2017-11-26T14:50:42.469Z,4.63
2017-11-26T14:53:10.678Z,4.43
2017-11-26T14:55:39.150Z,4.57
2017-11-26T14:58:06.595Z,5.03
2017-11-26T15:00:34.034Z,5.03
2017-11-26T15:03:01.524Z,4.40
2017-11-26T15:05:29.367Z,3.60
2017-11-26T15:07:56.956Z,4.70
2017-11-26T15:10:24.919Z,4.50
2017-11-26T15:12:52.972Z,4.60
2017-11-26T15:15:20.587Z,4.10
2017-11-26T15:17:48.026Z,4.83
2017-11-26T15:20:15.506Z,3.83
2017-11-26T15:22:43.127Z,4.33
2017-11-26T15:25:10.960Z,4.10
2017-11-26T15:27:38.410Z,4.50
2017-11-26T15:30:05.845Z,3.70
2017-11-26T15:32:33.283Z,3.90
2017-11-26T15:35:00.750Z,4.10
2017-11-26T15:37:28.191Z,3.70
2017-11-26T15:39:55.634Z,3.83
2017-11-26T15:42:23.078Z,4.13
2017-11-26T15:44:50.514Z,3.87
2017-11-26T15:47:18.649Z,3.70
2017-11-26T15:49:46.091Z,4.20
2017-11-26T15:52:13.537Z,3.50
2017-11-26T15:54:41.002Z,4.00
2017-11-26T15:57:08.437Z,4.00
2017-11-26T15:59:35.918Z,4.33
2017-11-26T16:02:03.387Z,3.53
2017-11-26T16:04:30.837Z,3.73
2017-11-26T16:06:58.283Z,4.00
2017-11-26T16:09:25.819Z,4.12
2017-11-26T16:11:53.254Z,3.87
2017-11-26T16:14:20.700Z,3.97
2017-11-26T16:16:48.532Z,3.20
2017-11-26T16:19:15.972Z,3.90
2017-11-26T16:21:43.414Z,4.10
2017-11-26T16:24:10.825Z,4.10
2017-11-26T16:26:38.680Z,3.60
2017-11-26T16:29:06.496Z,4.23
2017-11-26T16:31:33.921Z,3.83
2017-11-26T16:34:01.874Z,3.50
2017-11-26T16:36:29.705Z,4.60
2017-11-26T16:38:58.838Z,3.93
2017-11-26T16:41:26.266Z,3.60
2017-11-26T16:43:53.699Z,3.50
2017-11-26T16:46:21.455Z,4.27
2017-11-26T16:48:48.882Z,3.00
2017-11-26T16:51:16.507Z,4.40
2017-11-26T16:53:44.358Z,3.23
2017-11-26T16:56:11.791Z,3.20
2017-11-26T16:58:39.223Z,3.63
2017-11-26T17:01:06.680Z,3.23
2017-11-26T17:03:34.099Z,2.80
2017-11-26T17:06:02.277Z,3.40
2017-11-26T17:08:30.610Z,3.17
2017-11-26T17:10:58.032Z,3.37
2017-11-26T17:13:25.462Z,2.97
2017-11-26T17:15:53.298Z,3.43
2017-11-26T17:18:20.728Z,3.87
2017-11-26T17:20:48.149Z,3.80
2017-11-26T17:23:15.606Z,3.23
2017-11-26T17:25:43.038Z,3.37
2017-11-26T17:28:10.870Z,3.93
2017-11-26T17:30:38.528Z,3.50
2017-11-26T17:33:05.953Z,4.80
2017-11-26T17:35:33.374Z,3.53
2017-11-26T17:38:00.811Z,4.80
2017-11-26T17:40:28.641Z,3.33
2017-11-26T17:42:56.400Z,3.80
2017-11-26T17:45:23.834Z,3.80
2017-11-26T17:47:51.267Z,3.87
2017-11-26T17:50:19.110Z,3.40
2017-11-26T17:52:46.646Z,3.73
2017-11-26T17:55:14.151Z,3.70
2017-11-26T17:57:42.115Z,5.03
2017-11-26T18:00:09.949Z,3.90
2017-11-26T18:02:37.378Z,3.90
2017-11-26T18:05:04.802Z,4.00
2017-11-26T18:07:32.258Z,3.50
2017-11-26T18:09:59.694Z,5.50
2017-11-26T18:12:27.813Z,4.00
2017-11-26T18:14:55.246Z,4.40
2017-11-26T18:17:22.702Z,4.00
2017-11-26T18:19:50.126Z,3.47
2017-11-26T18:22:18.094Z,3.83
2017-11-26T18:24:46.020Z,4.00
2017-11-26T18:27:13.676Z,3.60
2017-11-26T18:29:41.310Z,4.10
2017-11-26T18:32:09.004Z,3.90
2017-11-26T18:35:00.634Z,3.40
2017-11-26T18:37:28.191Z,4.17
2017-11-26T18:39:55.635Z,3.87
2017-11-26T18:42:23.067Z,4.00
2017-11-26T18:44:50.535Z,4.33
2017-11-26T18:47:18.085Z,3.60
2017-11-26T18:49:45.526Z,4.13
2017-11-26T18:52:13.084Z,3.23
2017-11-26T18:54:41.330Z,4.00
2017-11-26T18:57:09.391Z,4.27
2017-11-26T18:59:37.230Z,4.30
2017-11-26T19:02:04.714Z,3.20
2017-11-26T19:04:32.578Z,3.70
2017-11-26T19:07:00.403Z,3.53
2017-11-26T19:09:27.859Z,3.60
2017-11-26T19:11:56.347Z,4.00
2017-11-26T19:14:23.816Z,3.13
2017-11-26T19:16:51.247Z,4.70
2017-11-26T19:19:18.712Z,4.43
2017-11-26T19:21:46.160Z,3.93
2017-11-26T19:24:13.609Z,3.50
2017-11-26T19:26:41.064Z,4.27
2017-11-26T19:29:08.517Z,4.10
2017-11-26T19:31:35.966Z,4.50
2017-11-26T19:34:03.423Z,3.90
2017-11-26T19:36:30.875Z,4.67
2017-11-26T19:38:58.389Z,3.60
2017-11-26T19:41:26.246Z,4.60
2017-11-26T19:43:54.402Z,3.90
2017-11-26T19:46:21.847Z,4.57
2017-11-26T19:48:49.315Z,4.27
2017-11-26T19:51:17.181Z,3.87
2017-11-26T19:53:44.622Z,3.80
2017-11-26T19:56:12.086Z,3.40
2017-11-26T19:58:45.290Z,2.87
2017-11-26T20:01:13.147Z,3.33
2017-11-26T20:03:40.596Z,4.07
2017-11-26T20:06:08.055Z,4.43
2017-11-26T20:08:35.514Z,3.73
2017-11-26T20:11:02.936Z,4.13
2017-11-26T20:13:30.539Z,3.20
2017-11-26T20:15:58.382Z,3.90
2017-11-26T20:18:25.863Z,3.03
2017-11-26T20:20:53.707Z,3.33
2017-11-26T20:23:21.160Z,3.40
2017-11-26T20:25:48.587Z,3.40
2017-11-26T20:28:16.362Z,2.90
2017-11-26T20:30:44.762Z,4.00
2017-11-26T20:33:12.896Z,3.60
2017-11-26T20:35:40.347Z,3.80
2017-11-26T20:38:07.806Z,3.90
2017-11-26T20:40:35.459Z,3.30
2017-11-26T20:43:02.908Z,3.60
2017-11-26T20:45:30.340Z,3.93
2017-11-26T20:47:57.824Z,4.77
2017-11-26T20:50:25.291Z,4.33
2017-11-26T20:52:52.746Z,4.30
2017-11-26T20:55:27.020Z,3.93
2017-11-26T20:57:54.559Z,3.90
2017-11-26T21:00:22.421Z,4.03
2017-11-26T21:02:55.067Z,4.23
2017-11-26T21:05:22.580Z,4.40
2017-11-26T21:07:50.134Z,4.40
2017-11-26T21:10:20.538Z,4.30
2017-11-26T21:13:02.064Z,3.90
2017-11-26T21:15:32.585Z,3.53
2017-11-26T21:18:02.529Z,4.70
2017-11-26T21:20:31.948Z,3.23
2017-11-26T21:23:01.321Z,4.73
2017-11-26T21:25:28.892Z,5.43
2017-11-26T21:28:00.171Z,3.23
2017-11-26T21:30:27.716Z,3.73
2017-11-26T21:33:01.572Z,3.80
2017-11-26T21:38:30.350Z,3.03
2017-11-26T21:40:58.082Z,3.47
2017-11-26T21:43:26.931Z,3.47
2017-11-26T22:12:56.259Z,3.47
2017-11-26T22:15:31.370Z,3.80
2017-11-26T22:18:02.971Z,3.87
2017-11-26T22:20:31.505Z,3.57
2017-11-26T22:22:59.504Z,2.93
2017-11-26T22:25:26.993Z,3.30
2017-11-26T22:27:58.478Z,3.67
2017-11-26T22:30:36.979Z,4.20
2017-11-26T22:36:23.940Z,4.30
2017-11-26T22:38:51.537Z,4.13
2017-11-26T22:41:20.306Z,4.07
2017-11-26T22:43:48.448Z,3.70
2017-11-26T22:52:24.323Z,3.67
2017-11-26T22:55:27.802Z,4.32
2017-11-26T23:04:05.325Z,4.13
2017-11-26T23:06:33.594Z,3.47
2017-11-26T23:09:01.115Z,3.23
2017-11-26T23:11:51.968Z,3.80
2017-11-26T23:14:21.836Z,3.80
2017-11-26T23:16:55.867Z,4.03
2017-11-26T23:19:36.359Z,3.50
2017-11-26T23:22:04.660Z,3.30
2017-11-26T23:24:32.146Z,3.90
2017-11-26T23:27:01.990Z,3.77
2017-11-26T23:29:31.196Z,3.30
2017-11-26T23:31:59.768Z,3.60
2017-11-26T23:34:30.832Z,3.10
2017-11-26T23:36:58.372Z,3.30
2017-11-26T23:39:26.405Z,3.87
2017-11-26T23:41:57.525Z,4.00
2017-11-26T23:44:25.404Z,2.80
2017-11-26T23:46:52.979Z,3.30
2017-11-26T23:49:20.464Z,3.43
2017-11-26T23:51:48.373Z,3.03
2017-11-26T23:54:15.860Z,3.50
2017-11-26T23:56:43.375Z,3.40
2017-11-26T23:59:10.878Z,4.77
